Terminal Aerodrome Forecast
Issued by NWS

Home | Current Version | Previous Version | Text Only | Print | Product List | Glossary On
Versions: 1 2 3 4 5 6 7 8 9 10 11 12 13 14 15 16 17 18
629
FTUS43 KTOP 301738
TAFFOE
TAF
KFOE 301738Z 3018/3118 17010KT P6SM SCT050 SCT250
     FM301900 17009KT P6SM VCTS SCT040 BKN060CB
      TEMPO 3020/3024 -TSRA
     FM310100 16006KT P6SM SCT040 SCT250
     FM311000 17005KT 5SM BR SCT010 BKN020
     FM311500 18007KT P6SM VCTS BKN020CB=

USA.gov is the U.S. government's official web portal to all federal, state and local government web resources and services.